sensor_id;sensor_type;location;lat;lon;timestamp;P1;durP1;ratioP1;P2;durP2;ratioP2
13847;SDS011;6994;49.752;6.094;2023-05-10T00:01:19;6.28;;;4.68;;
13847;SDS011;6994;49.752;6.094;2023-05-10T00:03:46;4.75;;;3.97;;
13847;SDS011;6994;49.752;6.094;2023-05-10T00:06:13;6.35;;;4.20;;
13847;SDS011;6994;49.752;6.094;2023-05-10T00:08:40;7.60;;;4.70;;
13847;SDS011;6994;49.752;6.094;2023-05-10T00:11:08;11.85;;;4.25;;
13847;SDS011;6994;49.752;6.094;2023-05-10T00:13:35;11.25;;;4.47;;
13847;SDS011;6994;49.752;6.094;2023-05-10T00:16:02;6.82;;;4.72;;
13847;SDS011;6994;49.752;6.094;2023-05-10T00:18:29;8.15;;;6.50;;
13847;SDS011;6994;49.752;6.094;2023-05-10T00:20:56;6.55;;;4.72;;
13847;SDS011;6994;49.752;6.094;2023-05-10T00:23:24;8.40;;;4.93;;
13847;SDS011;6994;49.752;6.094;2023-05-10T00:25:51;6.25;;;5.65;;
13847;SDS011;6994;49.752;6.094;2023-05-10T00:28:18;8.93;;;4.65;;
13847;SDS011;6994;49.752;6.094;2023-05-10T00:30:46;6.25;;;4.37;;
13847;SDS011;6994;49.752;6.094;2023-05-10T00:33:14;4.78;;;4.37;;
13847;SDS011;6994;49.752;6.094;2023-05-10T00:35:41;5.35;;;4.50;;
13847;SDS011;6994;49.752;6.094;2023-05-10T00:38:08;6.12;;;4.70;;
13847;SDS011;6994;49.752;6.094;2023-05-10T00:40:36;6.45;;;5.12;;
13847;SDS011;6994;49.752;6.094;2023-05-10T00:43:03;7.45;;;5.18;;
13847;SDS011;6994;49.752;6.094;2023-05-10T00:45:31;12.85;;;5.30;;
13847;SDS011;6994;49.752;6.094;2023-05-10T00:47:58;6.85;;;4.43;;
13847;SDS011;6994;49.752;6.094;2023-05-10T00:50:24;6.32;;;5.00;;
13847;SDS011;6994;49.752;6.094;2023-05-10T00:52:52;10.25;;;6.15;;
13847;SDS011;6994;49.752;6.094;2023-05-10T00:55:19;11.70;;;8.20;;
13847;SDS011;6994;49.752;6.094;2023-05-10T00:57:46;8.55;;;6.57;;
13847;SDS011;6994;49.752;6.094;2023-05-10T01:00:13;9.00;;;6.45;;
13847;SDS011;6994;49.752;6.094;2023-05-10T01:02:41;13.25;;;6.82;;
13847;SDS011;6994;49.752;6.094;2023-05-10T01:05:08;10.82;;;6.45;;
13847;SDS011;6994;49.752;6.094;2023-05-10T01:07:36;10.43;;;6.30;;
13847;SDS011;6994;49.752;6.094;2023-05-10T01:10:03;7.62;;;6.18;;
13847;SDS011;6994;49.752;6.094;2023-05-10T01:12:30;7.50;;;6.35;;
13847;SDS011;6994;49.752;6.094;2023-05-10T01:14:57;8.98;;;6.20;;
13847;SDS011;6994;49.752;6.094;2023-05-10T01:17:24;10.73;;;6.25;;
13847;SDS011;6994;49.752;6.094;2023-05-10T01:19:52;12.13;;;8.88;;
13847;SDS011;6994;49.752;6.094;2023-05-10T01:22:33;9.52;;;6.18;;
13847;SDS011;6994;49.752;6.094;2023-05-10T01:25:19;13.95;;;6.47;;
13847;SDS011;6994;49.752;6.094;2023-05-10T01:33:55;8.70;;;6.30;;
13847;SDS011;6994;49.752;6.094;2023-05-10T01:36:05;7.47;;;6.28;;
13847;SDS011;6994;49.752;6.094;2023-05-10T01:38:53;12.73;;;6.50;;
13847;SDS011;6994;49.752;6.094;2023-05-10T01:44:09;7.68;;;5.37;;
13847;SDS011;6994;49.752;6.094;2023-05-10T01:46:38;5.95;;;4.97;;
13847;SDS011;6994;49.752;6.094;2023-05-10T01:49:09;8.15;;;5.28;;
13847;SDS011;6994;49.752;6.094;2023-05-10T01:51:39;8.40;;;5.43;;
13847;SDS011;6994;49.752;6.094;2023-05-10T01:54:08;8.48;;;4.82;;
13847;SDS011;6994;49.752;6.094;2023-05-10T01:56:35;7.12;;;4.57;;
13847;SDS011;6994;49.752;6.094;2023-05-10T01:59:04;12.43;;;6.72;;
13847;SDS011;6994;49.752;6.094;2023-05-10T02:01:29;9.02;;;4.78;;
13847;SDS011;6994;49.752;6.094;2023-05-10T02:03:57;9.43;;;6.57;;
13847;SDS011;6994;49.752;6.094;2023-05-10T02:06:24;7.35;;;5.87;;
13847;SDS011;6994;49.752;6.094;2023-05-10T02:08:51;7.75;;;5.97;;
13847;SDS011;6994;49.752;6.094;2023-05-10T02:11:18;12.88;;;7.03;;
13847;SDS011;6994;49.752;6.094;2023-05-10T02:13:45;7.25;;;5.80;;
13847;SDS011;6994;49.752;6.094;2023-05-10T02:16:13;10.40;;;6.25;;
13847;SDS011;6994;49.752;6.094;2023-05-10T02:18:40;7.50;;;5.32;;
13847;SDS011;6994;49.752;6.094;2023-05-10T02:21:07;11.30;;;5.22;;
13847;SDS011;6994;49.752;6.094;2023-05-10T02:23:34;9.15;;;5.60;;
13847;SDS011;6994;49.752;6.094;2023-05-10T02:26:01;7.18;;;5.60;;
13847;SDS011;6994;49.752;6.094;2023-05-10T02:28:29;6.28;;;5.40;;
13847;SDS011;6994;49.752;6.094;2023-05-10T02:30:56;8.65;;;4.95;;
13847;SDS011;6994;49.752;6.094;2023-05-10T02:33:23;8.38;;;5.78;;
13847;SDS011;6994;49.752;6.094;2023-05-10T02:35:50;11.18;;;5.85;;
13847;SDS011;6994;49.752;6.094;2023-05-10T02:38:18;11.45;;;6.28;;
13847;SDS011;6994;49.752;6.094;2023-05-10T02:40:45;10.82;;;8.05;;
13847;SDS011;6994;49.752;6.094;2023-05-10T02:43:12;13.48;;;7.93;;
13847;SDS011;6994;49.752;6.094;2023-05-10T02:45:39;9.50;;;6.45;;
13847;SDS011;6994;49.752;6.094;2023-05-10T02:48:06;10.10;;;5.57;;
13847;SDS011;6994;49.752;6.094;2023-05-10T02:50:33;11.68;;;6.12;;
13847;SDS011;6994;49.752;6.094;2023-05-10T02:53:01;9.30;;;6.25;;
13847;SDS011;6994;49.752;6.094;2023-05-10T02:55:37;10.07;;;5.95;;
13847;SDS011;6994;49.752;6.094;2023-05-10T02:57:56;8.50;;;5.97;;
13847;SDS011;6994;49.752;6.094;2023-05-10T03:00:26;10.85;;;6.15;;
13847;SDS011;6994;49.752;6.094;2023-05-10T03:02:53;8.15;;;5.75;;
13847;SDS011;6994;49.752;6.094;2023-05-10T03:05:20;12.10;;;7.22;;
13847;SDS011;6994;49.752;6.094;2023-05-10T03:07:48;9.93;;;5.72;;
13847;SDS011;6994;49.752;6.094;2023-05-10T03:10:16;13.30;;;7.78;;
13847;SDS011;6994;49.752;6.094;2023-05-10T03:12:56;10.98;;;6.00;;
13847;SDS011;6994;49.752;6.094;2023-05-10T03:15:31;7.03;;;4.35;;
13847;SDS011;6994;49.752;6.094;2023-05-10T03:17:56;6.03;;;3.42;;
13847;SDS011;6994;49.752;6.094;2023-05-10T03:20:26;5.28;;;3.53;;
13847;SDS011;6994;49.752;6.094;2023-05-10T03:22:55;5.55;;;2.85;;
13847;SDS011;6994;49.752;6.094;2023-05-10T03:25:22;5.90;;;3.42;;
13847;SDS011;6994;49.752;6.094;2023-05-10T03:27:49;3.92;;;3.25;;
13847;SDS011;6994;49.752;6.094;2023-05-10T03:30:17;4.55;;;2.53;;
13847;SDS011;6994;49.752;6.094;2023-05-10T03:32:44;2.70;;;2.33;;
13847;SDS011;6994;49.752;6.094;2023-05-10T03:35:11;1.35;;;1.25;;
13847;SDS011;6994;49.752;6.094;2023-05-10T03:37:38;2.85;;;1.70;;
13847;SDS011;6994;49.752;6.094;2023-05-10T03:40:06;1.85;;;1.00;;
13847;SDS011;6994;49.752;6.094;2023-05-10T03:42:33;1.58;;;0.88;;
13847;SDS011;6994;49.752;6.094;2023-05-10T03:45:00;3.17;;;0.73;;
13847;SDS011;6994;49.752;6.094;2023-05-10T03:47:27;3.80;;;1.02;;
13847;SDS011;6994;49.752;6.094;2023-05-10T03:49:54;1.00;;;0.80;;
13847;SDS011;6994;49.752;6.094;2023-05-10T03:52:22;2.05;;;0.93;;
13847;SDS011;6994;49.752;6.094;2023-05-10T03:54:50;0.80;;;0.77;;
13847;SDS011;6994;49.752;6.094;2023-05-10T03:57:18;4.70;;;0.90;;
13847;SDS011;6994;49.752;6.094;2023-05-10T03:59:45;3.37;;;0.75;;
13847;SDS011;6994;49.752;6.094;2023-05-10T04:02:13;4.00;;;1.20;;
13847;SDS011;6994;49.752;6.094;2023-05-10T04:04:41;4.87;;;0.98;;
13847;SDS011;6994;49.752;6.094;2023-05-10T04:07:08;2.95;;;0.90;;
13847;SDS011;6994;49.752;6.094;2023-05-10T04:09:35;0.98;;;0.88;;
13847;SDS011;6994;49.752;6.094;2023-05-10T04:12:02;3.30;;;0.82;;
13847;SDS011;6994;49.752;6.094;2023-05-10T04:14:29;2.70;;;0.90;;
13847;SDS011;6994;49.752;6.094;2023-05-10T04:16:57;1.30;;;0.70;;
13847;SDS011;6994;49.752;6.094;2023-05-10T04:19:24;1.77;;;0.88;;
13847;SDS011;6994;49.752;6.094;2023-05-10T04:21:51;3.72;;;0.90;;
13847;SDS011;6994;49.752;6.094;2023-05-10T04:24:18;4.97;;;0.88;;
13847;SDS011;6994;49.752;6.094;2023-05-10T04:26:45;2.00;;;1.08;;
13847;SDS011;6994;49.752;6.094;2023-05-10T04:29:13;2.15;;;1.00;;
13847;SDS011;6994;49.752;6.094;2023-05-10T04:31:41;2.50;;;0.70;;
13847;SDS011;6994;49.752;6.094;2023-05-10T04:34:09;2.22;;;0.90;;
13847;SDS011;6994;49.752;6.094;2023-05-10T04:36:37;3.47;;;0.80;;
13847;SDS011;6994;49.752;6.094;2023-05-10T04:39:04;0.80;;;0.80;;
13847;SDS011;6994;49.752;6.094;2023-05-10T04:41:31;4.28;;;1.10;;
13847;SDS011;6994;49.752;6.094;2023-05-10T04:43:58;2.42;;;1.00;;
13847;SDS011;6994;49.752;6.094;2023-05-10T04:46:25;2.70;;;1.00;;
13847;SDS011;6994;49.752;6.094;2023-05-10T04:48:53;5.55;;;0.90;;
13847;SDS011;6994;49.752;6.094;2023-05-10T04:51:20;3.50;;;1.20;;
13847;SDS011;6994;49.752;6.094;2023-05-10T04:53:47;2.00;;;0.90;;
13847;SDS011;6994;49.752;6.094;2023-05-10T04:56:14;3.95;;;1.00;;
13847;SDS011;6994;49.752;6.094;2023-05-10T04:58:41;1.45;;;0.70;;
13847;SDS011;6994;49.752;6.094;2023-05-10T05:01:09;0.62;;;0.62;;
13847;SDS011;6994;49.752;6.094;2023-05-10T05:03:37;4.15;;;0.90;;
13847;SDS011;6994;49.752;6.094;2023-05-10T05:06:05;1.02;;;0.75;;
13847;SDS011;6994;49.752;6.094;2023-05-10T05:08:32;1.40;;;0.80;;
13847;SDS011;6994;49.752;6.094;2023-05-10T05:10:59;1.83;;;0.82;;
13847;SDS011;6994;49.752;6.094;2023-05-10T05:13:26;0.85;;;0.60;;
13847;SDS011;6994;49.752;6.094;2023-05-10T05:15:53;0.68;;;0.68;;
13847;SDS011;6994;49.752;6.094;2023-05-10T05:18:21;2.50;;;0.88;;
13847;SDS011;6994;49.752;6.094;2023-05-10T05:20:48;0.80;;;0.60;;
13847;SDS011;6994;49.752;6.094;2023-05-10T05:23:15;2.40;;;1.00;;
13847;SDS011;6994;49.752;6.094;2023-05-10T05:25:42;1.62;;;0.62;;
13847;SDS011;6994;49.752;6.094;2023-05-10T05:28:09;1.58;;;0.88;;
13847;SDS011;6994;49.752;6.094;2023-05-10T05:30:37;3.90;;;0.80;;
13847;SDS011;6994;49.752;6.094;2023-05-10T05:33:04;1.90;;;0.62;;
13847;SDS011;6994;49.752;6.094;2023-05-10T05:35:31;1.12;;;0.70;;
13847;SDS011;6994;49.752;6.094;2023-05-10T05:37:58;2.65;;;0.70;;
13847;SDS011;6994;49.752;6.094;2023-05-10T05:40:26;0.77;;;0.68;;
13847;SDS011;6994;49.752;6.094;2023-05-10T05:42:54;2.78;;;0.95;;
13847;SDS011;6994;49.752;6.094;2023-05-10T05:45:22;2.33;;;0.70;;
13847;SDS011;6994;49.752;6.094;2023-05-10T05:47:50;2.25;;;0.70;;
13847;SDS011;6994;49.752;6.094;2023-05-10T05:50:18;2.47;;;0.80;;
13847;SDS011;6994;49.752;6.094;2023-05-10T05:52:46;1.55;;;0.40;;
13847;SDS011;6994;49.752;6.094;2023-05-10T05:55:13;2.55;;;0.60;;
13847;SDS011;6994;49.752;6.094;2023-05-10T05:57:40;0.70;;;0.57;;
13847;SDS011;6994;49.752;6.094;2023-05-10T06:00:08;15.57;;;2.85;;
13847;SDS011;6994;49.752;6.094;2023-05-10T06:02:35;0.50;;;0.50;;
13847;SDS011;6994;49.752;6.094;2023-05-10T06:05:02;0.88;;;0.40;;
13847;SDS011;6994;49.752;6.094;2023-05-10T06:07:29;0.65;;;0.40;;
13847;SDS011;6994;49.752;6.094;2023-05-10T06:09:56;1.77;;;0.57;;
13847;SDS011;6994;49.752;6.094;2023-05-10T06:12:24;2.10;;;0.73;;
13847;SDS011;6994;49.752;6.094;2023-05-10T06:14:51;0.95;;;0.47;;
13847;SDS011;6994;49.752;6.094;2023-05-10T06:17:18;4.00;;;0.65;;
13847;SDS011;6994;49.752;6.094;2023-05-10T06:19:45;0.55;;;0.52;;
13847;SDS011;6994;49.752;6.094;2023-05-10T06:22:13;2.83;;;0.45;;
13847;SDS011;6994;49.752;6.094;2023-05-10T06:24:40;0.52;;;0.50;;
13847;SDS011;6994;49.752;6.094;2023-05-10T06:27:08;1.00;;;0.50;;
13847;SDS011;6994;49.752;6.094;2023-05-10T06:29:35;0.47;;;0.40;;
13847;SDS011;6994;49.752;6.094;2023-05-10T06:32:02;0.62;;;0.60;;
13847;SDS011;6994;49.752;6.094;2023-05-10T06:34:29;1.77;;;0.50;;
13847;SDS011;6994;49.752;6.094;2023-05-10T06:36:57;0.55;;;0.40;;
13847;SDS011;6994;49.752;6.094;2023-05-10T06:39:24;2.33;;;0.60;;
13847;SDS011;6994;49.752;6.094;2023-05-10T06:41:51;1.90;;;0.50;;
13847;SDS011;6994;49.752;6.094;2023-05-10T06:44:18;0.60;;;0.60;;
13847;SDS011;6994;49.752;6.094;2023-05-10T06:46:46;0.85;;;0.47;;
13847;SDS011;6994;49.752;6.094;2023-05-10T06:49:13;0.30;;;0.30;;
13847;SDS011;6994;49.752;6.094;2023-05-10T06:51:40;3.60;;;0.73;;
13847;SDS011;6994;49.752;6.094;2023-05-10T06:54:08;0.40;;;0.40;;
13847;SDS011;6994;49.752;6.094;2023-05-10T06:56:36;1.65;;;0.40;;
13847;SDS011;6994;49.752;6.094;2023-05-10T06:59:03;2.55;;;0.70;;
13847;SDS011;6994;49.752;6.094;2023-05-10T07:01:30;0.37;;;0.37;;
13847;SDS011;6994;49.752;6.094;2023-05-10T07:03:57;0.90;;;0.45;;
13847;SDS011;6994;49.752;6.094;2023-05-10T07:06:24;2.42;;;0.98;;
13847;SDS011;6994;49.752;6.094;2023-05-10T07:08:52;1.20;;;0.60;;
13847;SDS011;6994;49.752;6.094;2023-05-10T07:11:19;1.70;;;0.52;;
13847;SDS011;6994;49.752;6.094;2023-05-10T07:13:46;0.68;;;0.32;;
13847;SDS011;6994;49.752;6.094;2023-05-10T07:16:13;1.77;;;1.00;;
13847;SDS011;6994;49.752;6.094;2023-05-10T07:18:40;1.00;;;0.70;;
13847;SDS011;6994;49.752;6.094;2023-05-10T07:21:08;0.80;;;0.70;;
13847;SDS011;6994;49.752;6.094;2023-05-10T07:23:35;0.60;;;0.60;;
13847;SDS011;6994;49.752;6.094;2023-05-10T07:26:02;0.90;;;0.55;;
13847;SDS011;6994;49.752;6.094;2023-05-10T07:28:29;2.83;;;0.95;;
13847;SDS011;6994;49.752;6.094;2023-05-10T07:30:57;1.12;;;0.70;;
13847;SDS011;6994;49.752;6.094;2023-05-10T07:33:24;1.42;;;0.88;;
13847;SDS011;6994;49.752;6.094;2023-05-10T07:35:51;0.80;;;0.80;;
13847;SDS011;6994;49.752;6.094;2023-05-10T07:38:18;1.37;;;0.80;;
13847;SDS011;6994;49.752;6.094;2023-05-10T07:40:45;0.75;;;0.70;;
13847;SDS011;6994;49.752;6.094;2023-05-10T07:43:13;0.75;;;0.75;;
13847;SDS011;6994;49.752;6.094;2023-05-10T07:45:40;2.75;;;0.98;;
13847;SDS011;6994;49.752;6.094;2023-05-10T07:48:07;0.82;;;0.60;;
13847;SDS011;6994;49.752;6.094;2023-05-10T07:50:34;1.00;;;0.90;;
13847;SDS011;6994;49.752;6.094;2023-05-10T07:53:01;2.83;;;0.60;;
13847;SDS011;6994;49.752;6.094;2023-05-10T07:55:29;3.08;;;0.80;;
13847;SDS011;6994;49.752;6.094;2023-05-10T07:57:56;1.30;;;0.73;;
13847;SDS011;6994;49.752;6.094;2023-05-10T08:00:23;3.80;;;1.10;;
13847;SDS011;6994;49.752;6.094;2023-05-10T08:02:50;1.17;;;0.55;;
13847;SDS011;6994;49.752;6.094;2023-05-10T08:05:17;0.62;;;0.62;;
13847;SDS011;6994;49.752;6.094;2023-05-10T08:07:45;2.37;;;0.68;;
13847;SDS011;6994;49.752;6.094;2023-05-10T08:10:12;1.25;;;0.73;;
13847;SDS011;6994;49.752;6.094;2023-05-10T08:12:39;2.05;;;0.60;;
13847;SDS011;6994;49.752;6.094;2023-05-10T08:15:06;0.73;;;0.65;;
13847;SDS011;6994;49.752;6.094;2023-05-10T08:17:34;0.80;;;0.70;;
13847;SDS011;6994;49.752;6.094;2023-05-10T08:20:02;0.82;;;0.50;;
13847;SDS011;6994;49.752;6.094;2023-05-10T08:22:29;1.73;;;0.50;;
13847;SDS011;6994;49.752;6.094;2023-05-10T08:24:57;1.33;;;0.70;;
13847;SDS011;6994;49.752;6.094;2023-05-10T08:27:24;0.47;;;0.47;;
13847;SDS011;6994;49.752;6.094;2023-05-10T08:29:51;0.47;;;0.40;;
13847;SDS011;6994;49.752;6.094;2023-05-10T08:32:18;0.85;;;0.60;;
13847;SDS011;6994;49.752;6.094;2023-05-10T08:34:45;0.98;;;0.50;;
13847;SDS011;6994;49.752;6.094;2023-05-10T08:37:13;2.25;;;0.50;;
13847;SDS011;6994;49.752;6.094;2023-05-10T08:39:40;1.23;;;0.60;;
13847;SDS011;6994;49.752;6.094;2023-05-10T08:42:07;0.62;;;0.37;;
13847;SDS011;6994;49.752;6.094;2023-05-10T08:44:34;1.77;;;0.77;;
13847;SDS011;6994;49.752;6.094;2023-05-10T08:47:05;0.65;;;0.60;;
13847;SDS011;6994;49.752;6.094;2023-05-10T08:49:32;0.90;;;0.30;;
13847;SDS011;6994;49.752;6.094;2023-05-10T08:51:59;0.73;;;0.47;;
13847;SDS011;6994;49.752;6.094;2023-05-10T08:54:27;4.25;;;0.62;;
13847;SDS011;6994;49.752;6.094;2023-05-10T08:56:55;0.60;;;0.60;;
13847;SDS011;6994;49.752;6.094;2023-05-10T08:59:22;0.50;;;0.50;;
13847;SDS011;6994;49.752;6.094;2023-05-10T09:01:49;1.10;;;0.88;;
13847;SDS011;6994;49.752;6.094;2023-05-10T09:04:16;1.33;;;0.77;;
13847;SDS011;6994;49.752;6.094;2023-05-10T09:06:44;1.30;;;0.60;;
13847;SDS011;6994;49.752;6.094;2023-05-10T09:09:11;2.37;;;0.68;;
13847;SDS011;6994;49.752;6.094;2023-05-10T09:11:38;1.98;;;0.60;;
13847;SDS011;6994;49.752;6.094;2023-05-10T09:14:05;1.30;;;0.45;;
13847;SDS011;6994;49.752;6.094;2023-05-10T09:16:33;0.75;;;0.62;;
13847;SDS011;6994;49.752;6.094;2023-05-10T09:19:00;0.95;;;0.50;;
13847;SDS011;6994;49.752;6.094;2023-05-10T09:21:28;2.08;;;0.60;;
13847;SDS011;6994;49.752;6.094;2023-05-10T09:23:55;2.37;;;0.85;;
13847;SDS011;6994;49.752;6.094;2023-05-10T09:26:22;0.77;;;0.60;;
13847;SDS011;6994;49.752;6.094;2023-05-10T09:28:50;0.70;;;0.70;;
13847;SDS011;6994;49.752;6.094;2023-05-10T09:31:19;1.42;;;1.05;;
13847;SDS011;6994;49.752;6.094;2023-05-10T09:33:47;2.22;;;1.00;;
13847;SDS011;6994;49.752;6.094;2023-05-10T09:36:14;1.62;;;0.90;;
13847;SDS011;6994;49.752;6.094;2023-05-10T09:38:45;2.15;;;0.77;;
13847;SDS011;6994;49.752;6.094;2023-05-10T09:41:21;1.60;;;0.93;;
13847;SDS011;6994;49.752;6.094;2023-05-10T09:43:46;2.25;;;1.02;;
13847;SDS011;6994;49.752;6.094;2023-05-10T09:46:17;4.35;;;1.17;;
13847;SDS011;6994;49.752;6.094;2023-05-10T09:48:45;2.75;;;1.10;;
13847;SDS011;6994;49.752;6.094;2023-05-10T09:51:21;2.40;;;1.55;;
13847;SDS011;6994;49.752;6.094;2023-05-10T09:53:48;3.03;;;1.27;;
13847;SDS011;6994;49.752;6.094;2023-05-10T09:56:17;4.97;;;1.25;;
13847;SDS011;6994;49.752;6.094;2023-05-10T09:58:42;2.08;;;1.12;;
13847;SDS011;6994;49.752;6.094;2023-05-10T10:01:12;1.60;;;1.25;;
13847;SDS011;6994;49.752;6.094;2023-05-10T10:03:42;4.05;;;1.40;;
13847;SDS011;6994;49.752;6.094;2023-05-10T10:06:09;3.12;;;1.20;;
13847;SDS011;6994;49.752;6.094;2023-05-10T10:08:37;3.47;;;1.45;;
13847;SDS011;6994;49.752;6.094;2023-05-10T10:11:04;2.03;;;1.25;;
13847;SDS011;6994;49.752;6.094;2023-05-10T10:13:31;19.23;;;1.80;;
13847;SDS011;6994;49.752;6.094;2023-05-10T10:15:59;3.50;;;1.37;;
13847;SDS011;6994;49.752;6.094;2023-05-10T10:18:26;3.10;;;1.48;;
13847;SDS011;6994;49.752;6.094;2023-05-10T10:20:54;2.45;;;1.23;;
13847;SDS011;6994;49.752;6.094;2023-05-10T10:23:22;3.55;;;1.10;;
13847;SDS011;6994;49.752;6.094;2023-05-10T10:25:49;5.62;;;1.52;;
13847;SDS011;6994;49.752;6.094;2023-05-10T10:28:20;4.57;;;1.50;;
13847;SDS011;6994;49.752;6.094;2023-05-10T10:30:43;4.60;;;1.33;;
13847;SDS011;6994;49.752;6.094;2023-05-10T10:35:58;6.53;;;1.83;;
13847;SDS011;6994;49.752;6.094;2023-05-10T10:38:35;6.95;;;2.08;;
13847;SDS011;6994;49.752;6.094;2023-05-10T10:41:10;4.82;;;1.85;;
13847;SDS011;6994;49.752;6.094;2023-05-10T10:43:36;3.37;;;1.25;;
13847;SDS011;6994;49.752;6.094;2023-05-10T10:46:13;7.10;;;1.90;;
13847;SDS011;6994;49.752;6.094;2023-05-10T10:49:17;2.00;;;1.25;;
13847;SDS011;6994;49.752;6.094;2023-05-10T10:51:37;3.60;;;1.35;;
13847;SDS011;6994;49.752;6.094;2023-05-10T10:54:10;4.72;;;1.45;;
13847;SDS011;6994;49.752;6.094;2023-05-10T10:56:37;3.85;;;1.52;;
13847;SDS011;6994;49.752;6.094;2023-05-10T10:59:04;4.60;;;1.30;;
13847;SDS011;6994;49.752;6.094;2023-05-10T11:01:35;1.65;;;1.08;;
13847;SDS011;6994;49.752;6.094;2023-05-10T11:06:33;3.05;;;1.23;;
13847;SDS011;6994;49.752;6.094;2023-05-10T11:08:56;2.37;;;1.27;;
13847;SDS011;6994;49.752;6.094;2023-05-10T11:11:23;3.78;;;1.55;;
13847;SDS011;6994;49.752;6.094;2023-05-10T11:13:50;4.40;;;1.33;;
13847;SDS011;6994;49.752;6.094;2023-05-10T11:16:18;5.97;;;1.58;;
13847;SDS011;6994;49.752;6.094;2023-05-10T11:18:54;4.03;;;1.60;;
13847;SDS011;6994;49.752;6.094;2023-05-10T11:21:20;3.28;;;1.10;;
13847;SDS011;6994;49.752;6.094;2023-05-10T11:23:51;5.55;;;1.08;;
13847;SDS011;6994;49.752;6.094;2023-05-10T11:26:15;1.83;;;1.00;;
13847;SDS011;6994;49.752;6.094;2023-05-10T11:28:43;2.30;;;1.17;;
13847;SDS011;6994;49.752;6.094;2023-05-10T11:31:10;2.40;;;1.00;;
13847;SDS011;6994;49.752;6.094;2023-05-10T11:33:44;7.50;;;1.12;;
13847;SDS011;6994;49.752;6.094;2023-05-10T11:36:23;4.10;;;1.10;;
13847;SDS011;6994;49.752;6.094;2023-05-10T11:38:55;2.37;;;1.23;;
13847;SDS011;6994;49.752;6.094;2023-05-10T11:41:22;2.87;;;0.98;;
13847;SDS011;6994;49.752;6.094;2023-05-10T11:43:50;3.15;;;0.75;;
13847;SDS011;6994;49.752;6.094;2023-05-10T11:46:18;3.95;;;1.00;;
13847;SDS011;6994;49.752;6.094;2023-05-10T11:48:44;2.25;;;1.15;;
13847;SDS011;6994;49.752;6.094;2023-05-10T11:51:12;3.53;;;0.95;;
13847;SDS011;6994;49.752;6.094;2023-05-10T11:53:40;4.22;;;1.15;;
13847;SDS011;6994;49.752;6.094;2023-05-10T11:56:07;2.87;;;0.90;;
13847;SDS011;6994;49.752;6.094;2023-05-10T11:58:35;4.35;;;1.20;;
13847;SDS011;6994;49.752;6.094;2023-05-10T12:01:01;5.10;;;1.30;;
13847;SDS011;6994;49.752;6.094;2023-05-10T12:03:29;2.70;;;1.33;;
13847;SDS011;6994;49.752;6.094;2023-05-10T12:05:56;3.80;;;1.08;;
13847;SDS011;6994;49.752;6.094;2023-05-10T12:08:24;4.62;;;1.20;;
13847;SDS011;6994;49.752;6.094;2023-05-10T12:10:50;4.35;;;1.12;;
13847;SDS011;6994;49.752;6.094;2023-05-10T12:13:18;1.45;;;0.93;;
13847;SDS011;6994;49.752;6.094;2023-05-10T12:15:45;1.45;;;0.85;;
13847;SDS011;6994;49.752;6.094;2023-05-10T12:18:13;2.00;;;0.95;;
13847;SDS011;6994;49.752;6.094;2023-05-10T12:20:41;4.62;;;1.33;;
13847;SDS011;6994;49.752;6.094;2023-05-10T12:23:09;5.35;;;0.85;;
13847;SDS011;6994;49.752;6.094;2023-05-10T12:25:36;5.53;;;1.10;;
13847;SDS011;6994;49.752;6.094;2023-05-10T12:28:04;2.47;;;0.80;;
13847;SDS011;6994;49.752;6.094;2023-05-10T12:30:31;4.15;;;0.85;;
13847;SDS011;6994;49.752;6.094;2023-05-10T12:33:01;4.65;;;1.10;;
13847;SDS011;6994;49.752;6.094;2023-05-10T12:35:30;2.80;;;1.05;;
13847;SDS011;6994;49.752;6.094;2023-05-10T12:37:58;3.22;;;0.82;;
13847;SDS011;6994;49.752;6.094;2023-05-10T12:40:26;1.45;;;0.77;;
13847;SDS011;6994;49.752;6.094;2023-05-10T12:42:53;1.50;;;0.80;;
13847;SDS011;6994;49.752;6.094;2023-05-10T12:45:20;2.83;;;0.93;;
13847;SDS011;6994;49.752;6.094;2023-05-10T12:47:47;1.67;;;0.75;;
13847;SDS011;6994;49.752;6.094;2023-05-10T12:50:14;3.80;;;1.00;;
13847;SDS011;6994;49.752;6.094;2023-05-10T12:52:42;2.53;;;1.02;;
13847;SDS011;6994;49.752;6.094;2023-05-10T12:55:09;5.85;;;1.12;;
13847;SDS011;6994;49.752;6.094;2023-05-10T12:57:36;1.37;;;0.60;;
13847;SDS011;6994;49.752;6.094;2023-05-10T13:00:03;1.95;;;0.60;;
13847;SDS011;6994;49.752;6.094;2023-05-10T13:02:31;1.67;;;0.80;;
13847;SDS011;6994;49.752;6.094;2023-05-10T13:04:58;3.60;;;1.17;;
13847;SDS011;6994;49.752;6.094;2023-05-10T13:07:25;3.17;;;0.90;;
13847;SDS011;6994;49.752;6.094;2023-05-10T13:09:52;2.90;;;0.90;;
13847;SDS011;6994;49.752;6.094;2023-05-10T13:12:19;1.55;;;0.73;;
13847;SDS011;6994;49.752;6.094;2023-05-10T13:14:47;4.18;;;1.30;;
13847;SDS011;6994;49.752;6.094;2023-05-10T13:17:14;3.67;;;0.75;;
13847;SDS011;6994;49.752;6.094;2023-05-10T13:19:42;2.30;;;0.93;;
13847;SDS011;6994;49.752;6.094;2023-05-10T13:22:09;2.08;;;1.00;;
13847;SDS011;6994;49.752;6.094;2023-05-10T13:24:36;0.82;;;0.60;;
13847;SDS011;6994;49.752;6.094;2023-05-10T13:27:04;0.98;;;0.77;;
13847;SDS011;6994;49.752;6.094;2023-05-10T13:29:32;3.20;;;0.75;;
13847;SDS011;6994;49.752;6.094;2023-05-10T13:31:59;3.33;;;0.95;;
13847;SDS011;6994;49.752;6.094;2023-05-10T13:34:27;2.30;;;0.82;;
13847;SDS011;6994;49.752;6.094;2023-05-10T13:36:54;2.90;;;1.17;;
13847;SDS011;6994;49.752;6.094;2023-05-10T13:39:21;3.00;;;0.82;;
13847;SDS011;6994;49.752;6.094;2023-05-10T13:41:48;2.47;;;1.00;;
13847;SDS011;6994;49.752;6.094;2023-05-10T13:44:15;4.65;;;1.17;;
13847;SDS011;6994;49.752;6.094;2023-05-10T13:46:43;1.48;;;0.70;;
13847;SDS011;6994;49.752;6.094;2023-05-10T13:49:10;2.35;;;0.80;;
13847;SDS011;6994;49.752;6.094;2023-05-10T13:51:37;3.03;;;1.02;;
13847;SDS011;6994;49.752;6.094;2023-05-10T13:54:05;1.23;;;0.68;;
13847;SDS011;6994;49.752;6.094;2023-05-10T13:56:33;2.05;;;0.55;;
13847;SDS011;6994;49.752;6.094;2023-05-10T13:59:00;1.80;;;0.70;;
13847;SDS011;6994;49.752;6.094;2023-05-10T14:01:27;2.25;;;0.62;;
13847;SDS011;6994;49.752;6.094;2023-05-10T14:03:55;3.10;;;0.80;;
13847;SDS011;6994;49.752;6.094;2023-05-10T14:06:23;1.42;;;0.75;;
13847;SDS011;6994;49.752;6.094;2023-05-10T14:08:51;1.50;;;0.70;;
13847;SDS011;6994;49.752;6.094;2023-05-10T14:11:19;3.00;;;1.15;;
13847;SDS011;6994;49.752;6.094;2023-05-10T14:13:47;3.30;;;0.80;;
13847;SDS011;6994;49.752;6.094;2023-05-10T14:16:15;3.00;;;0.70;;
13847;SDS011;6994;49.752;6.094;2023-05-10T14:18:42;2.10;;;0.80;;
13847;SDS011;6994;49.752;6.094;2023-05-10T14:21:09;2.03;;;0.68;;
13847;SDS011;6994;49.752;6.094;2023-05-10T14:23:36;1.25;;;0.90;;
13847;SDS011;6994;49.752;6.094;2023-05-10T14:26:04;0.60;;;0.60;;
13847;SDS011;6994;49.752;6.094;2023-05-10T14:28:31;1.90;;;0.62;;
13847;SDS011;6994;49.752;6.094;2023-05-10T14:30:58;1.42;;;0.90;;
13847;SDS011;6994;49.752;6.094;2023-05-10T14:33:25;1.95;;;0.68;;
13847;SDS011;6994;49.752;6.094;2023-05-10T14:35:53;1.25;;;0.68;;
13847;SDS011;6994;49.752;6.094;2023-05-10T14:38:19;1.75;;;0.70;;
13847;SDS011;6994;49.752;6.094;2023-05-10T14:40:47;2.35;;;0.70;;
13847;SDS011;6994;49.752;6.094;2023-05-10T14:43:15;2.30;;;0.82;;
13847;SDS011;6994;49.752;6.094;2023-05-10T14:45:42;0.80;;;0.65;;
13847;SDS011;6994;49.752;6.094;2023-05-10T14:48:09;2.67;;;0.60;;
13847;SDS011;6994;49.752;6.094;2023-05-10T14:50:36;3.58;;;0.95;;
13847;SDS011;6994;49.752;6.094;2023-05-10T14:53:04;2.20;;;0.85;;
13847;SDS011;6994;49.752;6.094;2023-05-10T14:55:31;2.03;;;0.80;;
13847;SDS011;6994;49.752;6.094;2023-05-10T14:57:58;3.03;;;1.00;;
13847;SDS011;6994;49.752;6.094;2023-05-10T15:00:25;3.28;;;0.80;;
13847;SDS011;6994;49.752;6.094;2023-05-10T15:02:52;3.70;;;0.82;;
13847;SDS011;6994;49.752;6.094;2023-05-10T15:05:20;1.50;;;0.60;;
13847;SDS011;6994;49.752;6.094;2023-05-10T15:07:48;2.97;;;0.93;;
13847;SDS011;6994;49.752;6.094;2023-05-10T15:10:15;1.08;;;0.70;;
13847;SDS011;6994;49.752;6.094;2023-05-10T15:12:42;1.42;;;0.70;;
13847;SDS011;6994;49.752;6.094;2023-05-10T15:15:09;1.75;;;0.68;;
13847;SDS011;6994;49.752;6.094;2023-05-10T15:17:36;1.95;;;0.45;;